createdAt,value
2023-01-25T00:01:20.872Z,3.82
2023-01-25T00:03:51.000Z,3.79
2023-01-25T00:06:21.068Z,3.72
2023-01-25T00:08:53.015Z,3.61
2023-01-25T00:11:25.670Z,3.67
2023-01-25T00:13:56.762Z,3.62
2023-01-25T00:16:27.709Z,3.57
2023-01-25T00:18:57.476Z,3.57
2023-01-25T00:21:29.357Z,3.36
2023-01-25T00:23:59.523Z,3.50
2023-01-25T00:26:33.521Z,3.46
2023-01-25T00:29:04.753Z,3.44
2023-01-25T00:31:44.833Z,3.41
2023-01-25T00:34:45.649Z,3.43
2023-01-25T00:37:22.001Z,3.43
2023-01-25T00:39:52.268Z,3.50
2023-01-25T00:42:25.183Z,3.52
2023-01-25T00:44:55.237Z,3.33
2023-01-25T00:47:25.491Z,3.52
2023-01-25T00:49:55.859Z,3.52
2023-01-25T00:52:25.893Z,3.55
2023-01-25T00:54:55.941Z,3.60
2023-01-25T00:57:28.793Z,3.62
2023-01-25T00:59:58.837Z,3.63
2023-01-25T01:02:28.945Z,3.66
2023-01-25T01:04:59.130Z,3.68
2023-01-25T01:07:29.173Z,3.69
2023-01-25T01:10:00.455Z,3.71
2023-01-25T01:12:33.057Z,3.75
2023-01-25T01:15:03.108Z,3.78
2023-01-25T01:17:33.173Z,3.79
2023-01-25T01:20:03.160Z,3.79
2023-01-25T01:22:33.217Z,3.83
2023-01-25T01:25:03.261Z,3.82
2023-01-25T01:27:35.896Z,3.74
2023-01-25T01:30:06.063Z,3.83
2023-01-25T01:32:36.217Z,3.83
2023-01-25T01:35:06.893Z,3.85
2023-01-25T01:37:37.221Z,3.87
2023-01-25T01:40:07.878Z,3.90
2023-01-25T01:42:59.115Z,3.88
2023-01-25T01:45:53.195Z,3.92
2023-01-25T01:48:36.773Z,3.94
2023-01-25T01:51:19.556Z,3.94
2023-01-25T01:53:55.648Z,3.91
2023-01-25T01:56:33.212Z,3.92
2023-01-25T01:59:09.758Z,3.93
2023-01-25T02:01:40.629Z,3.92
2023-01-25T02:04:12.377Z,3.93
2023-01-25T02:06:48.635Z,3.96
2023-01-25T02:09:23.932Z,3.93
2023-01-25T02:11:55.146Z,3.97
2023-01-25T02:14:30.987Z,3.91
2023-01-25T02:17:03.461Z,3.97
2023-01-25T02:19:46.249Z,3.96
2023-01-25T02:22:20.487Z,3.94
2023-01-25T02:25:06.292Z,3.99
2023-01-25T02:27:42.468Z,3.96
2023-01-25T02:30:13.786Z,3.99
2023-01-25T02:32:43.854Z,4.04
2023-01-25T02:35:22.231Z,4.05
2023-01-25T02:37:53.338Z,4.02
2023-01-25T02:40:25.995Z,4.06
2023-01-25T02:42:56.117Z,4.02
2023-01-25T02:45:31.601Z,4.08
2023-01-25T02:48:01.695Z,4.10
2023-01-25T02:50:32.909Z,4.11
2023-01-25T02:53:03.109Z,4.09
2023-01-25T02:55:35.866Z,4.13
2023-01-25T02:58:06.235Z,4.12
2023-01-25T03:00:36.440Z,4.16
2023-01-25T03:03:07.143Z,4.14
2023-01-25T03:05:37.580Z,4.15
2023-01-25T03:08:08.039Z,4.17
2023-01-25T03:10:40.722Z,4.07
2023-01-25T03:13:11.440Z,4.11
2023-01-25T03:15:41.584Z,4.14
2023-01-25T03:18:11.662Z,4.14
2023-01-25T03:20:41.692Z,4.13
2023-01-25T03:23:11.772Z,4.12
2023-01-25T03:25:44.661Z,4.13
2023-01-25T03:28:19.642Z,4.13
2023-01-25T03:30:56.033Z,4.11
2023-01-25T03:33:26.231Z,4.09
2023-01-25T03:35:57.003Z,4.08
2023-01-25T03:38:27.473Z,4.06
2023-01-25T03:41:00.225Z,4.06
2023-01-25T03:43:31.195Z,4.08
2023-01-25T03:46:03.099Z,4.03
2023-01-25T03:48:34.939Z,4.01
2023-01-25T03:51:05.090Z,4.10
2023-01-25T03:53:35.239Z,4.12
2023-01-25T03:56:20.612Z,4.12
2023-01-25T03:59:09.502Z,4.08
2023-01-25T04:01:40.108Z,4.08
2023-01-25T04:04:11.073Z,4.05
2023-01-25T04:06:43.413Z,3.93
2023-01-25T04:09:14.593Z,3.82
2023-01-25T04:11:54.933Z,3.97
2023-01-25T04:14:42.491Z,4.00
2023-01-25T04:17:14.942Z,3.99
2023-01-25T04:19:52.054Z,3.97
2023-01-25T04:22:26.295Z,3.92
2023-01-25T04:24:58.842Z,3.87
2023-01-25T04:27:31.609Z,3.82
2023-01-25T04:30:09.287Z,3.79
2023-01-25T04:32:40.968Z,3.78
2023-01-25T04:35:22.672Z,3.81
2023-01-25T04:37:58.061Z,3.80
2023-01-25T04:40:33.052Z,3.79
2023-01-25T04:43:06.626Z,3.80
2023-01-25T04:45:38.401Z,3.80
2023-01-25T04:48:16.536Z,3.75
2023-01-25T04:50:53.176Z,3.74
2023-01-25T04:53:25.399Z,3.80
2023-01-25T04:55:56.733Z,3.80
2023-01-25T04:58:30.839Z,3.85
2023-01-25T05:01:04.306Z,3.82
2023-01-25T05:03:35.704Z,3.82
2023-01-25T05:06:06.874Z,3.79
2023-01-25T05:08:36.922Z,3.79
2023-01-25T05:11:07.090Z,3.80
2023-01-25T05:14:14.950Z,3.79
2023-01-25T05:16:47.680Z,3.71
2023-01-25T05:19:18.187Z,3.76
2023-01-25T05:22:01.403Z,3.78
2023-01-25T05:24:41.775Z,3.75
2023-01-25T05:27:13.242Z,3.76
2023-01-25T05:30:02.317Z,3.77
2023-01-25T05:33:05.397Z,3.70
2023-01-25T05:35:36.660Z,3.71
2023-01-25T05:38:06.932Z,3.75
2023-01-25T05:40:37.298Z,3.74
2023-01-25T05:43:07.416Z,3.75
2023-01-25T05:45:40.505Z,3.77
2023-01-25T05:48:11.698Z,3.75
2023-01-25T05:50:41.767Z,3.42
2023-01-25T05:53:14.518Z,3.77
2023-01-25T05:55:44.726Z,3.76
2023-01-25T05:58:18.827Z,3.78
2023-01-25T06:00:51.549Z,3.78
2023-01-25T06:03:33.861Z,3.62
2023-01-25T06:06:06.689Z,3.82
2023-01-25T06:08:38.804Z,3.86
2023-01-25T06:11:13.559Z,3.89
2023-01-25T06:13:47.614Z,3.88
2023-01-25T06:16:21.322Z,3.87
2023-01-25T06:19:07.862Z,3.89
2023-01-25T06:21:49.326Z,3.86
2023-01-25T06:24:19.879Z,3.87
2023-01-25T06:26:49.906Z,3.56
2023-01-25T06:29:20.040Z,3.90
2023-01-25T06:31:52.784Z,3.92
2023-01-25T06:34:24.659Z,3.92
2023-01-25T06:36:55.926Z,3.92
2023-01-25T06:39:25.960Z,3.93
2023-01-25T06:41:56.861Z,3.90
2023-01-25T06:44:26.870Z,3.82
2023-01-25T06:47:00.499Z,3.64
2023-01-25T06:49:30.554Z,3.79
2023-01-25T06:52:01.546Z,3.80
2023-01-25T06:54:31.367Z,3.81
2023-01-25T06:57:01.417Z,3.80
2023-01-25T06:59:31.411Z,3.77
2023-01-25T07:02:04.091Z,3.76
2023-01-25T07:04:34.188Z,3.84
2023-01-25T07:07:04.269Z,3.90
2023-01-25T07:09:34.360Z,3.91
2023-01-25T07:12:04.851Z,3.88
2023-01-25T07:14:35.169Z,3.97
2023-01-25T07:17:07.806Z,3.94
2023-01-25T07:19:37.840Z,3.97
2023-01-25T07:22:07.943Z,3.95
2023-01-25T07:24:38.028Z,3.99
2023-01-25T07:27:08.089Z,3.97
2023-01-25T07:29:38.189Z,3.93
2023-01-25T07:32:11.006Z,3.96
2023-01-25T07:34:41.074Z,3.96
2023-01-25T07:37:11.554Z,3.96
2023-01-25T07:39:48.270Z,4.00
2023-01-25T07:42:18.832Z,4.04
2023-01-25T07:44:56.243Z,4.05
2023-01-25T07:47:29.098Z,4.00
2023-01-25T07:50:00.070Z,3.98
2023-01-25T07:52:29.860Z,3.98
2023-01-25T07:55:00.000Z,3.87
2023-01-25T07:57:30.436Z,4.06
2023-01-25T08:00:00.705Z,4.03
2023-01-25T08:02:33.914Z,3.99
2023-01-25T08:05:04.035Z,3.99
2023-01-25T08:07:34.036Z,4.02
2023-01-25T08:10:04.073Z,4.00
2023-01-25T08:12:34.485Z,3.99
2023-01-25T08:15:05.102Z,4.05
2023-01-25T08:17:37.684Z,4.06
2023-01-25T08:20:08.990Z,3.87
2023-01-25T08:22:39.116Z,4.09
2023-01-25T08:25:11.349Z,4.15
2023-01-25T08:27:41.394Z,4.16
2023-01-25T08:30:13.146Z,4.20
2023-01-25T08:32:45.832Z,4.28
2023-01-25T08:35:15.863Z,4.18
2023-01-25T08:37:45.908Z,4.39
2023-01-25T08:40:16.754Z,4.45
2023-01-25T08:42:46.793Z,4.26
2023-01-25T08:45:16.787Z,4.47
2023-01-25T08:47:49.671Z,4.45
2023-01-25T08:50:20.249Z,4.34
2023-01-25T08:52:50.419Z,4.37
2023-01-25T08:55:20.515Z,4.38
2023-01-25T08:57:50.518Z,4.43
2023-01-25T09:00:21.974Z,4.44
2023-01-25T09:02:54.697Z,4.48
2023-01-25T09:05:24.790Z,4.57
2023-01-25T09:07:54.789Z,4.47
2023-01-25T09:10:24.916Z,4.70
2023-01-25T09:12:54.958Z,4.77
2023-01-25T09:15:25.572Z,4.79
2023-01-25T09:17:59.745Z,4.77
2023-01-25T09:20:33.072Z,4.83
2023-01-25T09:23:04.594Z,4.61
2023-01-25T09:25:36.066Z,4.88
2023-01-25T09:28:11.512Z,4.71
2023-01-25T09:30:48.304Z,4.86
2023-01-25T09:33:35.169Z,4.88
2023-01-25T09:36:05.660Z,5.00
2023-01-25T09:38:36.252Z,5.20
2023-01-25T09:41:23.706Z,5.03
2023-01-25T09:44:14.881Z,4.94
2023-01-25T09:46:49.111Z,5.21
2023-01-25T09:49:49.022Z,5.19
2023-01-25T09:52:36.035Z,5.19
2023-01-25T09:55:06.328Z,5.18
2023-01-25T09:57:41.414Z,5.17
2023-01-25T10:00:20.495Z,5.21
2023-01-25T10:02:57.412Z,5.14
2023-01-25T10:05:33.637Z,5.15
2023-01-25T10:08:09.003Z,5.08
2023-01-25T10:10:42.391Z,5.04
2023-01-25T10:13:14.464Z,5.05
2023-01-25T10:15:49.335Z,4.99
2023-01-25T10:18:27.181Z,4.99
2023-01-25T10:21:04.605Z,5.01
2023-01-25T10:23:52.281Z,5.06
2023-01-25T10:26:30.017Z,5.07
2023-01-25T10:29:10.777Z,4.94
2023-01-25T10:31:47.517Z,5.07
2023-01-25T10:34:23.026Z,5.08
2023-01-25T10:36:58.637Z,5.11
2023-01-25T10:39:28.852Z,5.11
2023-01-25T10:42:02.563Z,5.08
2023-01-25T10:44:32.661Z,5.04
2023-01-25T10:47:09.110Z,4.96
2023-01-25T10:49:45.538Z,5.05
2023-01-25T10:52:21.149Z,5.02
2023-01-25T10:54:52.806Z,5.00
2023-01-25T10:57:25.381Z,4.76
2023-01-25T10:59:56.671Z,4.95
2023-01-25T11:02:43.039Z,4.98
2023-01-25T11:05:28.759Z,5.00
2023-01-25T11:08:02.801Z,5.05
2023-01-25T11:10:36.213Z,5.13
2023-01-25T11:13:25.540Z,5.07
2023-01-25T11:15:57.863Z,5.23
2023-01-25T11:18:33.686Z,5.30
2023-01-25T11:21:09.492Z,5.33
2023-01-25T11:23:42.136Z,5.45
2023-01-25T11:26:17.298Z,5.43
2023-01-25T11:28:49.209Z,5.42
2023-01-25T11:31:23.299Z,5.45
2023-01-25T11:33:53.665Z,5.41
2023-01-25T11:36:33.011Z,5.45
2023-01-25T11:39:28.200Z,5.48
2023-01-25T11:42:12.589Z,5.47
2023-01-25T11:45:06.372Z,5.33
2023-01-25T11:47:52.339Z,5.49
2023-01-25T11:50:33.271Z,5.56
2023-01-25T11:53:19.368Z,5.54
2023-01-25T11:55:59.422Z,5.38
2023-01-25T11:58:46.667Z,5.42
2023-01-25T12:01:23.938Z,5.40
2023-01-25T12:04:19.403Z,5.32
2023-01-25T12:07:02.923Z,5.32
2023-01-25T12:09:44.500Z,5.34
2023-01-25T12:12:24.986Z,5.35
2023-01-25T12:15:24.736Z,5.36
2023-01-25T12:18:20.607Z,5.38
2023-01-25T12:21:10.420Z,5.36
2023-01-25T12:23:56.408Z,5.33
2023-01-25T12:26:31.313Z,5.37
2023-01-25T12:29:15.130Z,5.28
2023-01-25T12:31:53.857Z,5.28
2023-01-25T12:34:31.977Z,5.32
2023-01-25T12:37:07.819Z,5.35
2023-01-25T12:39:44.222Z,5.38
2023-01-25T12:42:21.711Z,5.39
2023-01-25T12:45:00.621Z,5.43
2023-01-25T12:47:37.860Z,5.43
2023-01-25T12:50:17.505Z,5.46
2023-01-25T12:52:52.250Z,5.45
2023-01-25T12:55:22.608Z,5.40
2023-01-25T12:58:01.727Z,5.45
2023-01-25T13:00:39.523Z,5.44
2023-01-25T13:03:28.529Z,5.45
2023-01-25T13:06:05.348Z,5.45
2023-01-25T13:08:48.706Z,5.41
2023-01-25T13:11:23.437Z,5.39
2023-01-25T13:13:53.770Z,5.38
2023-01-25T13:16:45.219Z,5.38
2023-01-25T13:19:25.626Z,5.38
2023-01-25T13:21:58.292Z,5.43
2023-01-25T13:24:29.692Z,5.43
2023-01-25T13:27:26.316Z,5.47
2023-01-25T13:30:04.470Z,5.44
2023-01-25T13:33:01.779Z,5.47
2023-01-25T13:35:37.322Z,5.46
2023-01-25T13:38:31.511Z,5.41
2023-01-25T13:41:17.610Z,5.42
2023-01-25T13:43:51.382Z,5.42
2023-01-25T13:46:25.054Z,5.43
2023-01-25T13:49:17.769Z,5.45
2023-01-25T13:51:47.846Z,5.47
2023-01-25T13:54:19.709Z,5.44
2023-01-25T13:56:49.839Z,5.46
2023-01-25T13:59:30.556Z,5.47
2023-01-25T14:02:01.831Z,5.46
2023-01-25T14:04:34.797Z,5.44
2023-01-25T14:07:10.082Z,5.30
2023-01-25T14:09:40.283Z,5.43
2023-01-25T14:12:15.404Z,5.43
2023-01-25T14:14:49.540Z,5.41
2023-01-25T14:17:21.395Z,5.44
2023-01-25T14:19:56.857Z,5.43
2023-01-25T14:22:29.077Z,5.52
2023-01-25T14:25:08.742Z,5.55
2023-01-25T14:27:40.467Z,5.39
2023-01-25T14:30:20.715Z,5.50
2023-01-25T14:32:51.882Z,5.49
2023-01-25T14:36:11.679Z,5.42
2023-01-25T14:38:38.767Z,5.39
2023-01-25T14:41:16.046Z,5.31
2023-01-25T14:43:49.211Z,5.32
2023-01-25T14:46:24.571Z,5.30
2023-01-25T14:48:55.624Z,5.32
2023-01-25T14:51:33.104Z,5.30
2023-01-25T14:54:05.669Z,5.37
2023-01-25T14:56:44.789Z,5.39
2023-01-25T14:59:31.566Z,5.39
2023-01-25T15:02:05.107Z,5.38
2023-01-25T15:04:35.703Z,5.38
2023-01-25T15:07:17.588Z,5.37
2023-01-25T15:10:04.947Z,5.41
2023-01-25T15:12:35.786Z,5.40
2023-01-25T15:15:06.154Z,5.42
2023-01-25T15:17:44.447Z,5.42
2023-01-25T15:20:38.259Z,5.42
2023-01-25T15:23:34.673Z,5.38
2023-01-25T15:26:05.140Z,5.37
2023-01-25T15:28:37.475Z,5.37
2023-01-25T15:31:08.157Z,5.36
2023-01-25T15:33:38.242Z,5.33
2023-01-25T15:36:09.564Z,5.30
2023-01-25T15:38:42.246Z,5.22
2023-01-25T15:41:13.502Z,5.20
2023-01-25T15:43:44.016Z,5.13
2023-01-25T15:46:19.747Z,5.09
2023-01-25T15:48:51.184Z,5.07
2023-01-25T15:51:21.548Z,5.05
2023-01-25T15:53:54.451Z,5.05
2023-01-25T15:56:27.895Z,5.05
2023-01-25T15:59:00.804Z,4.96
2023-01-25T16:01:32.640Z,4.96
2023-01-25T16:04:04.068Z,4.96
2023-01-25T16:06:42.315Z,4.95
2023-01-25T16:09:21.740Z,4.98
2023-01-25T16:11:54.779Z,4.95
2023-01-25T16:14:29.291Z,4.89
2023-01-25T16:17:02.708Z,4.89
2023-01-25T16:19:33.415Z,4.92
2023-01-25T16:22:03.732Z,4.92
2023-01-25T16:24:39.426Z,4.91
2023-01-25T16:27:25.502Z,4.82
2023-01-25T16:29:56.022Z,4.80
2023-01-25T16:32:25.998Z,4.83
2023-01-25T16:34:56.132Z,4.81
2023-01-25T16:37:26.695Z,4.81
2023-01-25T16:39:59.337Z,4.81
2023-01-25T16:42:29.381Z,4.80
2023-01-25T16:44:59.468Z,4.81
2023-01-25T16:47:29.467Z,4.79
2023-01-25T16:49:59.699Z,4.79
2023-01-25T16:52:29.808Z,4.69
2023-01-25T16:55:02.617Z,4.65
2023-01-25T16:57:34.472Z,4.66
2023-01-25T17:00:05.400Z,4.61
2023-01-25T17:02:35.159Z,4.58
2023-01-25T17:05:08.163Z,4.53
2023-01-25T17:07:38.320Z,4.52
2023-01-25T17:10:12.943Z,4.53
2023-01-25T17:12:43.375Z,4.56
2023-01-25T17:15:13.813Z,4.52
2023-01-25T17:17:43.796Z,4.49
2023-01-25T17:20:14.814Z,4.53
2023-01-25T17:22:51.040Z,4.55
2023-01-25T17:25:24.175Z,4.53
2023-01-25T17:27:54.278Z,4.52
2023-01-25T17:30:24.734Z,4.51
2023-01-25T17:32:54.838Z,4.50
2023-01-25T17:35:24.952Z,4.51
2023-01-25T17:37:57.541Z,4.52
2023-01-25T17:40:30.444Z,4.53
2023-01-25T17:43:00.533Z,4.49
2023-01-25T17:45:30.611Z,4.52
2023-01-25T17:48:00.737Z,4.51
2023-01-25T17:50:30.739Z,4.52
2023-01-25T17:53:00.991Z,4.54
2023-01-25T17:55:33.767Z,4.27
2023-01-25T17:58:03.838Z,4.41
2023-01-25T18:00:34.385Z,4.42
2023-01-25T18:03:04.596Z,4.43
2023-01-25T18:05:34.805Z,4.46
2023-01-25T18:08:06.066Z,4.46
2023-01-25T18:10:38.720Z,4.45
2023-01-25T18:13:09.833Z,4.42
2023-01-25T18:15:40.167Z,4.46
2023-01-25T18:18:10.427Z,4.45
2023-01-25T18:20:40.534Z,4.46
2023-01-25T18:23:10.585Z,4.38
2023-01-25T18:25:43.283Z,4.40
2023-01-25T18:28:17.009Z,4.42
2023-01-25T18:30:54.331Z,4.38
2023-01-25T18:33:24.445Z,4.39
2023-01-25T18:35:54.553Z,4.38
2023-01-25T18:38:24.608Z,4.38
2023-01-25T18:40:57.575Z,4.39
2023-01-25T18:43:28.297Z,4.33
2023-01-25T18:45:59.666Z,4.41
2023-01-25T18:48:33.246Z,4.43
2023-01-25T18:51:08.396Z,4.42
2023-01-25T18:53:39.977Z,4.36
2023-01-25T18:56:16.033Z,4.42
2023-01-25T18:58:46.177Z,4.44
2023-01-25T19:01:17.932Z,4.46
2023-01-25T19:03:49.703Z,4.44
2023-01-25T19:06:20.745Z,4.43
2023-01-25T19:08:54.534Z,4.34
2023-01-25T19:11:27.857Z,4.09
2023-01-25T19:13:58.497Z,4.31
2023-01-25T19:16:28.586Z,4.37
2023-01-25T19:18:58.910Z,4.41
2023-01-25T19:21:30.549Z,4.31
2023-01-25T19:24:00.708Z,4.47
2023-01-25T19:26:33.438Z,4.47
2023-01-25T19:29:03.574Z,4.43
2023-01-25T19:31:33.891Z,4.45
2023-01-25T19:34:06.310Z,4.43
2023-01-25T19:36:38.366Z,4.46
2023-01-25T19:39:10.704Z,4.41
2023-01-25T19:41:43.729Z,4.47
2023-01-25T19:44:15.480Z,4.46
2023-01-25T19:46:46.027Z,4.24
2023-01-25T19:49:16.524Z,4.36
2023-01-25T19:51:53.244Z,4.29
2023-01-25T19:54:24.436Z,4.42
2023-01-25T19:56:58.635Z,4.49
2023-01-25T19:59:29.190Z,4.48
2023-01-25T20:01:59.298Z,4.43
2023-01-25T20:04:29.363Z,4.34
2023-01-25T20:06:59.484Z,4.31
2023-01-25T20:09:29.728Z,4.21
2023-01-25T20:12:05.982Z,4.24
2023-01-25T20:14:36.587Z,4.21
2023-01-25T20:17:07.481Z,4.17
2023-01-25T20:19:37.824Z,4.10
2023-01-25T20:22:07.947Z,4.06
2023-01-25T20:24:38.026Z,4.06
2023-01-25T20:27:10.750Z,4.09
2023-01-25T20:29:41.662Z,4.03
2023-01-25T20:32:26.695Z,3.97
2023-01-25T20:35:03.673Z,3.88
2023-01-25T20:37:33.843Z,3.84
2023-01-25T20:40:04.036Z,3.95
2023-01-25T20:42:36.712Z,3.91
2023-01-25T20:45:08.210Z,3.78
2023-01-25T20:47:38.538Z,3.83
2023-01-25T20:50:12.798Z,3.86
2023-01-25T20:52:43.203Z,3.89
2023-01-25T20:55:13.641Z,3.89
2023-01-25T20:57:46.708Z,3.97
2023-01-25T21:00:18.327Z,3.96
2023-01-25T21:02:48.380Z,3.98
2023-01-25T21:05:19.033Z,3.90
2023-01-25T21:07:49.161Z,3.78
2023-01-25T21:10:20.420Z,3.97
2023-01-25T21:12:53.134Z,3.71
2023-01-25T21:15:25.566Z,3.93
2023-01-25T21:17:56.043Z,3.91
2023-01-25T21:20:26.074Z,3.99
2023-01-25T21:22:56.467Z,4.02
2023-01-25T21:25:26.597Z,3.77
2023-01-25T21:27:59.482Z,3.96
2023-01-25T21:30:30.224Z,3.85
2023-01-25T21:33:00.256Z,3.99
2023-01-25T21:35:30.246Z,4.00
2023-01-25T21:38:00.345Z,3.76
2023-01-25T21:40:30.762Z,3.89
2023-01-25T21:43:03.784Z,3.87
2023-01-25T21:45:46.174Z,3.85
2023-01-25T21:48:36.295Z,3.84
2023-01-25T21:51:18.729Z,3.83
2023-01-25T21:53:50.188Z,3.78
2023-01-25T21:56:20.421Z,3.81
2023-01-25T21:58:54.002Z,3.81
2023-01-25T22:01:24.819Z,3.76
2023-01-25T22:03:54.604Z,3.77
2023-01-25T22:06:24.743Z,3.71
2023-01-25T22:08:54.833Z,3.67
2023-01-25T22:11:25.219Z,3.78
2023-01-25T22:13:58.897Z,3.72
2023-01-25T22:16:29.326Z,3.83
2023-01-25T22:19:00.149Z,3.83
2023-01-25T22:21:33.639Z,3.82
2023-01-25T22:24:06.143Z,3.71
2023-01-25T22:26:45.716Z,3.84
2023-01-25T22:29:19.074Z,3.74
2023-01-25T22:31:49.121Z,3.71
2023-01-25T22:34:19.106Z,3.60
2023-01-25T22:36:49.247Z,3.64
2023-01-25T22:39:19.519Z,3.64
2023-01-25T22:41:49.517Z,3.64
2023-01-25T22:44:22.373Z,3.69
2023-01-25T22:46:53.922Z,3.65
2023-01-25T22:49:24.136Z,3.66
2023-01-25T22:51:54.168Z,3.63
2023-01-25T22:54:24.231Z,3.56
2023-01-25T22:56:54.460Z,3.68
2023-01-25T22:59:27.476Z,3.68
2023-01-25T23:01:57.522Z,3.68
2023-01-25T23:04:27.699Z,3.66
2023-01-25T23:07:12.884Z,3.63
2023-01-25T23:09:43.365Z,3.49
2023-01-25T23:12:13.637Z,3.66
2023-01-25T23:14:55.323Z,3.66
2023-01-25T23:17:39.209Z,3.66
2023-01-25T23:20:12.139Z,3.63
2023-01-25T23:22:42.606Z,3.57
2023-01-25T23:25:14.159Z,3.61
2023-01-25T23:27:44.227Z,3.55
2023-01-25T23:30:17.824Z,3.58
2023-01-25T23:32:49.889Z,3.61
2023-01-25T23:35:20.765Z,3.51
2023-01-25T23:37:50.499Z,3.56
2023-01-25T23:40:20.755Z,3.46
2023-01-25T23:42:51.234Z,3.42
2023-01-25T23:45:24.008Z,3.39
2023-01-25T23:47:54.074Z,3.36
2023-01-25T23:50:24.156Z,3.48
2023-01-25T23:52:54.188Z,3.49
2023-01-25T23:55:24.221Z,3.52
2023-01-25T23:57:56.256Z,3.51
